Dansville, New York
Current Conditions -  °F | °C
As of 12:54 PM on Wednesday 28 Jan 2015 (Local Time) from KDSV Reporting Station
Clear Clear  
Wind Chill: -11°   Ceiling: Unl
Heat Index: -6°   Visibility: 10mi
Dew Point: -13°   Wind: 8mph
Humidity: 57%   Direction: 320°NW
Pressure: 30.26"   Gusts: NA
Location:  42.56°N, 77.7°W
Report Text: KDSV 281754Z AUTO 32007KT 10SM CLR M06/M13 A3026 RMK AO2 SLP270 60002 T10611133 11061 21211 58003
Loading
Personal Weather Stations






























Interactive Weather Map New forecast layout! Learn more

10-Day Weather Forecast

Advertisements
Track Severe Weather on mobile